createdAt,value
2023-03-20T00:01:38.977Z,9.20
2023-03-20T00:04:06.062Z,9.20
2023-03-20T00:06:33.176Z,9.20
2023-03-20T00:09:07.443Z,9.20
2023-03-20T00:11:44.081Z,9.20
2023-03-20T00:14:13.083Z,9.20
2023-03-20T00:16:41.367Z,9.20
2023-03-20T00:19:31.603Z,9.10
2023-03-20T00:21:58.671Z,9.10
2023-03-20T00:24:26.742Z,9.10
2023-03-20T00:26:53.846Z,9.10
2023-03-20T00:29:26.035Z,9.00
2023-03-20T00:31:53.376Z,9.10
2023-03-20T00:34:22.185Z,9.00
2023-03-20T00:36:49.644Z,9.10
2023-03-20T00:39:16.711Z,9.00
2023-03-20T00:41:56.726Z,9.00
2023-03-20T00:44:24.546Z,9.00
2023-03-20T00:46:56.203Z,9.00
2023-03-20T00:49:26.393Z,9.00
2023-03-20T00:51:53.750Z,9.00
2023-03-20T00:54:20.788Z,9.00
2023-03-20T00:57:01.539Z,9.00
2023-03-20T00:59:39.390Z,9.00
2023-03-20T01:02:06.740Z,9.00
2023-03-20T01:04:38.117Z,8.90
2023-03-20T01:07:05.358Z,8.90
2023-03-20T01:09:32.482Z,8.90
2023-03-20T01:12:02.834Z,8.90
2023-03-20T01:14:29.918Z,8.90
2023-03-20T01:16:57.032Z,8.90
2023-03-20T01:19:24.076Z,8.90
2023-03-20T01:21:51.468Z,8.90
2023-03-20T01:24:20.435Z,8.80
2023-03-20T01:26:47.608Z,8.80
2023-03-20T01:29:14.832Z,8.90
2023-03-20T01:31:42.185Z,8.80
2023-03-20T01:34:11.392Z,8.80
2023-03-20T01:36:38.769Z,8.80
2023-03-20T01:39:06.175Z,8.80
2023-03-20T01:41:33.279Z,8.80
2023-03-20T01:44:01.378Z,8.80
2023-03-20T01:46:29.923Z,8.80
2023-03-20T01:49:29.400Z,8.80
2023-03-20T01:52:00.311Z,8.80
2023-03-20T01:54:33.408Z,8.80
2023-03-20T01:57:15.544Z,8.80
2023-03-20T01:59:50.272Z,8.80
2023-03-20T02:02:19.803Z,8.80
2023-03-20T02:04:47.871Z,8.80
2023-03-20T02:07:16.886Z,8.80
2023-03-20T02:09:50.011Z,8.70
2023-03-20T02:12:23.082Z,8.70
2023-03-20T02:14:50.286Z,8.70
2023-03-20T02:17:24.224Z,8.70
2023-03-20T02:20:06.507Z,8.70
2023-03-20T02:22:52.382Z,8.70
2023-03-20T02:25:25.970Z,8.70
2023-03-20T02:27:59.265Z,8.70
2023-03-20T02:30:47.223Z,8.70
2023-03-20T02:33:33.244Z,8.70
2023-03-20T02:36:00.381Z,8.70
2023-03-20T02:38:40.749Z,8.60
2023-03-20T02:41:11.799Z,8.60
2023-03-20T02:43:45.152Z,8.60
2023-03-20T02:46:18.451Z,8.60
2023-03-20T02:48:47.293Z,8.60
2023-03-20T02:51:24.776Z,8.60
2023-03-20T02:53:54.483Z,8.60
2023-03-20T02:56:33.952Z,8.60
2023-03-20T02:59:17.422Z,8.60
2023-03-20T03:01:46.324Z,8.50
2023-03-20T03:04:16.189Z,8.60
2023-03-20T03:06:43.602Z,8.60
2023-03-20T03:09:17.674Z,8.50
2023-03-20T03:11:46.093Z,8.50
2023-03-20T03:14:33.647Z,8.50
2023-03-20T03:17:01.056Z,8.50
2023-03-20T03:19:29.377Z,8.60
2023-03-20T03:21:56.454Z,8.50
2023-03-20T03:24:40.740Z,8.50
2023-03-20T03:27:26.118Z,8.60
2023-03-20T03:29:54.644Z,8.60
2023-03-20T03:32:23.114Z,8.50
2023-03-20T03:34:51.193Z,8.50
2023-03-20T03:37:24.257Z,8.60
2023-03-20T03:39:52.368Z,8.50
2023-03-20T03:42:36.080Z,8.60
2023-03-20T03:45:10.648Z,8.60
2023-03-20T03:47:39.454Z,8.50
2023-03-20T03:50:17.002Z,8.50
2023-03-20T03:52:44.087Z,8.60
2023-03-20T03:55:12.120Z,8.50
2023-03-20T03:57:58.557Z,8.50
2023-03-20T04:00:26.152Z,8.60
2023-03-20T04:02:54.708Z,8.50
2023-03-20T04:05:22.912Z,8.50
2023-03-20T04:07:52.800Z,8.50
2023-03-20T04:10:19.912Z,8.60
2023-03-20T04:12:49.058Z,8.50
2023-03-20T04:15:17.393Z,8.50
2023-03-20T04:17:44.469Z,8.50
2023-03-20T04:20:13.332Z,8.50
2023-03-20T04:22:40.495Z,8.50
2023-03-20T04:25:14.490Z,8.40
2023-03-20T04:27:41.604Z,8.50
2023-03-20T04:30:16.563Z,8.40
2023-03-20T04:33:02.686Z,8.40
2023-03-20T04:35:55.798Z,8.40
2023-03-20T04:38:23.242Z,8.40
2023-03-20T04:40:52.327Z,8.40
2023-03-20T04:43:19.538Z,8.40
2023-03-20T04:45:46.652Z,8.40
2023-03-20T04:48:13.747Z,8.40
2023-03-20T04:50:41.310Z,8.40
2023-03-20T04:53:08.457Z,8.40
2023-03-20T04:55:36.050Z,8.40
2023-03-20T04:58:03.406Z,8.40
2023-03-20T05:00:30.593Z,8.30
2023-03-20T05:02:57.716Z,8.30
2023-03-20T05:05:24.986Z,8.30
2023-03-20T05:07:52.340Z,8.30
2023-03-20T05:10:34.880Z,8.30
2023-03-20T05:13:08.369Z,8.30
2023-03-20T05:15:53.879Z,8.30
2023-03-20T05:18:34.811Z,8.30
2023-03-20T05:21:15.920Z,8.20
2023-03-20T05:23:56.763Z,8.30
2023-03-20T05:26:42.231Z,8.20
2023-03-20T05:29:24.111Z,8.20
2023-03-20T05:32:09.756Z,8.20
2023-03-20T05:34:44.332Z,8.20
2023-03-20T05:37:31.609Z,8.20
2023-03-20T05:40:06.955Z,8.10
2023-03-20T05:42:51.349Z,8.10
2023-03-20T05:45:37.031Z,8.10
2023-03-20T05:48:04.288Z,8.10
2023-03-20T05:50:49.822Z,8.10
2023-03-20T05:53:39.604Z,8.10
2023-03-20T05:56:23.740Z,8.10
2023-03-20T05:59:11.382Z,8.00
2023-03-20T06:01:58.994Z,8.00
2023-03-20T06:04:30.177Z,8.00
2023-03-20T06:07:16.041Z,8.00
2023-03-20T06:09:47.383Z,8.10
2023-03-20T06:12:14.940Z,8.00
2023-03-20T06:14:42.556Z,8.00
2023-03-20T06:17:09.892Z,8.00
2023-03-20T06:19:37.071Z,8.00
2023-03-20T06:22:04.256Z,8.00
2023-03-20T06:24:31.656Z,8.00
2023-03-20T06:26:59.211Z,8.10
2023-03-20T06:29:26.990Z,8.10
2023-03-20T06:31:59.913Z,8.10
2023-03-20T06:34:30.208Z,8.10
2023-03-20T06:36:57.346Z,8.10
2023-03-20T06:39:24.797Z,8.10
2023-03-20T06:41:52.731Z,8.10
2023-03-20T06:44:23.505Z,8.10
2023-03-20T06:47:16.724Z,8.10
2023-03-20T06:49:45.936Z,8.10
2023-03-20T06:52:17.261Z,8.10
2023-03-20T06:54:46.984Z,8.10
2023-03-20T06:57:15.382Z,8.20
2023-03-20T06:59:48.325Z,8.20
2023-03-20T07:02:17.004Z,8.20
2023-03-20T07:04:44.400Z,8.20
2023-03-20T07:07:11.576Z,8.30
2023-03-20T07:09:39.571Z,8.30
2023-03-20T07:12:10.239Z,8.30
2023-03-20T07:14:38.723Z,8.30
2023-03-20T07:17:09.114Z,8.40
2023-03-20T07:19:38.239Z,8.40
2023-03-20T07:22:06.545Z,8.50
2023-03-20T07:24:38.696Z,8.50
2023-03-20T07:27:05.794Z,8.50
2023-03-20T07:29:34.697Z,8.50
2023-03-20T07:32:05.991Z,8.50
2023-03-20T07:34:39.764Z,8.50
2023-03-20T07:37:07.230Z,8.50
2023-03-20T07:39:35.221Z,8.50
2023-03-20T07:42:22.274Z,8.50
2023-03-20T07:44:57.543Z,8.50
2023-03-20T07:47:24.998Z,8.60
2023-03-20T07:49:52.260Z,8.60
2023-03-20T07:52:19.376Z,8.70
2023-03-20T07:54:46.446Z,8.80
2023-03-20T07:57:14.778Z,9.00
2023-03-20T07:59:41.851Z,9.20
2023-03-20T08:02:11.175Z,9.30
2023-03-20T08:04:38.262Z,9.20
2023-03-20T08:07:06.693Z,9.30
2023-03-20T08:09:33.950Z,9.40
2023-03-20T08:12:01.294Z,9.60
2023-03-20T08:14:28.417Z,9.80
2023-03-20T08:17:12.826Z,10.00
2023-03-20T08:19:41.274Z,10.20
2023-03-20T08:22:08.343Z,10.10
2023-03-20T08:24:35.415Z,10.10
2023-03-20T08:27:02.685Z,10.00
2023-03-20T08:29:29.753Z,9.90
2023-03-20T08:31:57.711Z,9.90
2023-03-20T08:34:24.778Z,9.90
2023-03-20T08:36:52.749Z,9.90
2023-03-20T08:39:19.807Z,9.80
2023-03-20T08:41:47.869Z,9.70
2023-03-20T08:44:14.923Z,9.70
2023-03-20T08:46:50.173Z,9.70
2023-03-20T08:49:17.264Z,9.70
2023-03-20T08:51:45.681Z,9.70
2023-03-20T08:54:12.754Z,9.70
2023-03-20T08:56:39.881Z,9.70
2023-03-20T08:59:06.882Z,9.70
2023-03-20T09:01:48.359Z,9.80
2023-03-20T09:04:16.741Z,9.80
2023-03-20T09:06:44.930Z,9.80
2023-03-20T09:09:15.608Z,9.80
2023-03-20T09:11:42.819Z,9.90
2023-03-20T09:14:09.923Z,9.90
2023-03-20T09:16:38.164Z,9.90
2023-03-20T09:19:05.343Z,10.00
2023-03-20T09:21:34.601Z,10.10
2023-03-20T09:24:01.606Z,10.20
2023-03-20T09:26:28.628Z,10.30
2023-03-20T09:28:55.868Z,10.30
2023-03-20T09:31:24.176Z,10.40
2023-03-20T09:33:51.207Z,10.40
2023-03-20T09:36:20.728Z,10.30
2023-03-20T09:38:47.847Z,10.30
2023-03-20T09:41:21.724Z,10.30
2023-03-20T09:44:04.258Z,10.30
2023-03-20T09:46:50.242Z,10.30
2023-03-20T09:49:25.414Z,10.30
2023-03-20T09:51:56.155Z,10.30
2023-03-20T09:54:43.414Z,10.40
2023-03-20T09:57:20.828Z,10.50
2023-03-20T09:59:48.473Z,10.50
2023-03-20T10:02:16.578Z,10.50
2023-03-20T10:05:27.722Z,10.60
2023-03-20T10:07:55.812Z,10.60
2023-03-20T10:10:43.193Z,10.70
2023-03-20T10:13:15.004Z,10.70
2023-03-20T10:15:47.324Z,10.70
2023-03-20T10:18:16.497Z,10.70
2023-03-20T10:20:52.952Z,10.70
2023-03-20T10:23:27.350Z,10.70
2023-03-20T10:26:06.418Z,10.60
2023-03-20T10:28:39.576Z,10.60
2023-03-20T10:31:16.494Z,10.70
2023-03-20T10:33:47.784Z,10.70
2023-03-20T10:36:23.878Z,10.70
2023-03-20T10:38:59.527Z,10.70
2023-03-20T10:41:30.374Z,10.70
2023-03-20T10:43:58.558Z,10.70
2023-03-20T10:46:27.301Z,10.70
2023-03-20T10:48:59.743Z,10.70
2023-03-20T10:51:46.287Z,10.80
2023-03-20T10:54:23.412Z,10.80
2023-03-20T10:56:51.096Z,11.00
2023-03-20T10:59:33.533Z,11.10
2023-03-20T11:02:00.706Z,11.20
2023-03-20T11:04:27.911Z,11.20
2023-03-20T11:06:58.208Z,11.20
2023-03-20T11:09:26.890Z,11.30
2023-03-20T11:11:56.318Z,11.30
2023-03-20T11:14:25.805Z,11.50
2023-03-20T11:16:53.757Z,11.60
2023-03-20T11:19:21.828Z,11.80
2023-03-20T11:21:49.830Z,11.90
2023-03-20T11:24:25.765Z,11.90
2023-03-20T11:26:52.830Z,11.80
2023-03-20T11:29:26.053Z,11.70
2023-03-20T11:31:53.153Z,11.70
2023-03-20T11:34:22.227Z,11.60
2023-03-20T11:37:08.730Z,11.50
2023-03-20T11:39:38.008Z,11.50
2023-03-20T11:42:19.439Z,11.40
2023-03-20T11:44:46.422Z,11.40
2023-03-20T11:47:14.750Z,11.40
2023-03-20T11:49:47.703Z,11.50
2023-03-20T11:52:15.395Z,11.60
2023-03-20T11:58:51.330Z,11.80
2023-03-20T12:01:18.404Z,11.80
2023-03-20T12:03:46.649Z,11.70
2023-03-20T12:06:15.387Z,11.60
2023-03-20T12:08:43.284Z,11.60
2023-03-20T12:11:47.839Z,11.50
2023-03-20T12:14:48.161Z,11.40
2023-03-20T12:17:27.392Z,11.40
2023-03-20T12:20:25.441Z,11.40
2023-03-20T12:23:21.588Z,11.50
2023-03-20T12:25:52.388Z,11.50
2023-03-20T12:28:39.450Z,11.50
2023-03-20T12:31:26.234Z,11.50
2023-03-20T12:34:06.373Z,11.50
2023-03-20T12:36:34.205Z,11.50
2023-03-20T12:39:02.065Z,11.50
2023-03-20T12:41:30.331Z,11.50
2023-03-20T12:44:09.816Z,11.50
2023-03-20T12:46:46.328Z,11.50
2023-03-20T12:49:13.396Z,11.50
2023-03-20T12:51:59.198Z,11.40
2023-03-20T12:54:30.813Z,11.40
2023-03-20T12:57:11.897Z,11.40
2023-03-20T12:59:51.420Z,11.40
2023-03-20T13:02:33.644Z,11.30
2023-03-20T13:05:19.604Z,11.40
2023-03-20T13:07:55.934Z,11.30
2023-03-20T13:10:23.538Z,11.30
2023-03-20T13:12:56.685Z,11.30
2023-03-20T13:15:23.757Z,11.40
2023-03-20T13:17:58.090Z,11.40
2023-03-20T13:20:36.594Z,11.40
2023-03-20T13:23:13.200Z,11.40
2023-03-20T13:25:45.458Z,11.50
2023-03-20T13:28:15.418Z,11.50
2023-03-20T13:31:02.811Z,11.60
2023-03-20T13:33:48.076Z,11.70
2023-03-20T13:36:29.733Z,11.80
2023-03-20T13:38:58.903Z,11.90
2023-03-20T13:41:26.034Z,11.90
2023-03-20T13:43:54.709Z,11.90
2023-03-20T13:46:28.447Z,12.00
2023-03-20T13:48:55.884Z,12.10
2023-03-20T13:51:23.112Z,12.30
2023-03-20T13:53:50.222Z,12.40
2023-03-20T13:56:23.308Z,12.50
2023-03-20T13:58:53.985Z,12.40
2023-03-20T14:01:44.500Z,12.50
2023-03-20T14:04:18.664Z,12.50
2023-03-20T14:06:45.845Z,12.60
2023-03-20T14:09:31.920Z,12.60
2023-03-20T14:12:00.476Z,12.70
2023-03-20T14:14:31.341Z,12.70
2023-03-20T14:17:15.294Z,12.80
2023-03-20T14:19:42.451Z,12.80
2023-03-20T14:22:34.396Z,12.70
2023-03-20T14:25:08.462Z,12.60
2023-03-20T14:27:44.322Z,12.50
2023-03-20T14:30:30.254Z,12.40
2023-03-20T14:33:12.848Z,12.40
2023-03-20T14:36:12.739Z,12.40
2023-03-20T14:38:44.770Z,12.30
2023-03-20T14:41:31.672Z,12.30
2023-03-20T14:43:59.855Z,12.30
2023-03-20T14:46:42.126Z,12.30
2023-03-20T14:49:23.679Z,12.40
2023-03-20T14:51:51.055Z,12.40
2023-03-20T14:54:21.073Z,12.40
2023-03-20T14:56:48.365Z,12.40
2023-03-20T14:59:15.807Z,12.30
2023-03-20T15:01:42.888Z,12.30
2023-03-20T15:04:19.489Z,12.30
2023-03-20T15:06:51.591Z,12.30
2023-03-20T15:09:19.022Z,12.30
2023-03-20T15:11:46.099Z,12.30
2023-03-20T15:14:16.081Z,12.20
2023-03-20T15:16:43.688Z,12.30
2023-03-20T15:19:17.568Z,12.20
2023-03-20T15:21:44.894Z,12.20
2023-03-20T15:24:17.880Z,12.20
2023-03-20T15:26:44.909Z,12.20
2023-03-20T15:29:13.002Z,12.10
2023-03-20T15:31:40.645Z,12.10
2023-03-20T15:34:21.475Z,12.10
2023-03-20T15:36:48.562Z,12.10
2023-03-20T15:39:16.519Z,12.10
2023-03-20T15:41:59.576Z,12.10
2023-03-20T15:44:39.981Z,12.10
2023-03-20T15:47:10.199Z,12.10
2023-03-20T15:49:37.932Z,12.00
2023-03-20T15:52:05.823Z,12.00
2023-03-20T15:54:33.185Z,12.00
2023-03-20T15:57:03.521Z,11.90
2023-03-20T15:59:31.427Z,11.90
2023-03-20T16:01:58.604Z,11.90
2023-03-20T16:04:33.886Z,11.90
2023-03-20T16:07:01.216Z,11.90
2023-03-20T16:09:28.283Z,11.80
2023-03-20T16:11:59.140Z,11.80
2023-03-20T16:14:26.893Z,11.70
2023-03-20T16:16:54.528Z,11.60
2023-03-20T16:19:21.671Z,11.60
2023-03-20T16:21:58.916Z,11.60
2023-03-20T16:24:30.314Z,11.60
2023-03-20T16:26:57.482Z,11.50
2023-03-20T16:29:24.871Z,11.50
2023-03-20T16:32:07.895Z,11.50
2023-03-20T16:34:35.812Z,11.40
2023-03-20T16:37:08.471Z,11.40
2023-03-20T16:39:35.578Z,11.30
2023-03-20T16:42:09.583Z,11.30
2023-03-20T16:44:37.316Z,11.30
2023-03-20T16:47:10.565Z,11.20
2023-03-20T16:49:48.355Z,11.20
2023-03-20T16:52:15.428Z,11.20
2023-03-20T16:54:42.534Z,11.20
2023-03-20T16:57:10.229Z,11.10
2023-03-20T16:59:38.391Z,11.10
2023-03-20T17:02:10.896Z,11.10
2023-03-20T17:04:39.164Z,11.00
2023-03-20T17:07:07.255Z,11.00
2023-03-20T17:09:34.349Z,11.00
2023-03-20T17:12:04.975Z,10.90
2023-03-20T17:14:32.376Z,10.90
2023-03-20T17:17:00.211Z,10.80
2023-03-20T17:19:27.355Z,10.80
2023-03-20T17:21:54.650Z,10.80
2023-03-20T17:24:21.842Z,10.70
2023-03-20T17:26:52.252Z,10.70
2023-03-20T17:29:19.454Z,10.70
2023-03-20T17:31:46.661Z,10.60
2023-03-20T17:34:14.751Z,10.60
2023-03-20T17:36:42.026Z,10.50
2023-03-20T17:39:10.066Z,10.50
2023-03-20T17:41:37.214Z,10.40
2023-03-20T17:44:05.324Z,10.40
2023-03-20T17:46:38.007Z,10.30
2023-03-20T17:49:12.615Z,10.30
2023-03-20T17:51:40.705Z,10.20
2023-03-20T17:54:07.808Z,10.20
2023-03-20T17:56:35.240Z,10.10
2023-03-20T17:59:02.667Z,10.10
2023-03-20T18:01:32.471Z,10.00
2023-03-20T18:03:59.917Z,10.00
2023-03-20T18:06:27.948Z,9.90
2023-03-20T18:08:55.409Z,9.90
2023-03-20T18:11:22.631Z,9.80
2023-03-20T18:13:49.713Z,9.80
2023-03-20T18:16:24.259Z,9.80
2023-03-20T18:18:52.601Z,9.80
2023-03-20T18:21:19.701Z,9.70
2023-03-20T18:23:46.791Z,9.70
2023-03-20T18:26:20.887Z,9.70
2023-03-20T18:28:48.272Z,9.60
2023-03-20T18:31:18.844Z,9.60
2023-03-20T18:33:50.876Z,9.60
2023-03-20T18:36:24.284Z,9.50
2023-03-20T18:38:51.547Z,9.50
2023-03-20T18:41:18.635Z,9.50
2023-03-20T18:43:48.677Z,9.40
2023-03-20T18:46:16.428Z,9.40
2023-03-20T18:48:44.165Z,9.40
2023-03-20T18:51:12.440Z,9.30
2023-03-20T18:53:43.788Z,9.30
2023-03-20T18:56:15.024Z,9.20
2023-03-20T18:58:42.239Z,9.20
2023-03-20T19:01:11.189Z,9.20
2023-03-20T19:03:41.267Z,9.20
2023-03-20T19:06:18.730Z,9.20
2023-03-20T19:08:46.016Z,9.10
2023-03-20T19:11:20.469Z,9.10
2023-03-20T19:13:52.243Z,9.10
2023-03-20T19:16:20.844Z,9.10
2023-03-20T19:18:49.824Z,9.10
2023-03-20T19:21:16.915Z,9.00
2023-03-20T19:23:44.191Z,9.00
2023-03-20T19:26:17.937Z,9.00
2023-03-20T19:28:45.622Z,9.00
2023-03-20T19:31:12.871Z,9.00
2023-03-20T19:33:40.061Z,9.00
2023-03-20T19:36:07.997Z,9.00
2023-03-20T19:38:35.321Z,9.00
2023-03-20T19:41:03.761Z,9.00
2023-03-20T19:43:30.891Z,9.00
2023-03-20T19:45:59.265Z,8.90
2023-03-20T19:48:27.377Z,8.90
2023-03-20T19:50:54.478Z,8.90
2023-03-20T19:53:22.323Z,8.90
2023-03-20T19:55:49.379Z,8.90
2023-03-20T19:58:16.539Z,8.90
2023-03-20T20:00:57.342Z,8.90
2023-03-20T20:03:25.551Z,8.90
2023-03-20T20:05:52.943Z,8.90
2023-03-20T20:08:42.127Z,8.90
2023-03-20T20:11:09.786Z,8.90
2023-03-20T20:13:46.992Z,8.90
2023-03-20T20:16:23.984Z,8.90
2023-03-20T20:18:51.113Z,8.90
2023-03-20T20:24:05.482Z,8.90
2023-03-20T20:26:38.890Z,8.90
2023-03-20T20:29:09.621Z,8.90
2023-03-20T20:31:36.752Z,8.90
2023-03-20T20:35:05.767Z,8.90
2023-03-20T20:37:36.711Z,8.90
2023-03-20T20:39:38.274Z,8.90
2023-03-20T20:42:05.408Z,8.90
2023-03-20T20:44:32.614Z,8.90
2023-03-20T20:47:00.721Z,8.90
2023-03-20T20:49:27.741Z,9.00
2023-03-20T20:51:55.031Z,8.90
2023-03-20T20:54:22.125Z,8.90
2023-03-20T20:56:50.325Z,8.90
2023-03-20T20:59:17.597Z,8.90
2023-03-20T21:01:44.732Z,8.90
2023-03-20T21:04:12.011Z,8.80
2023-03-20T21:07:06.242Z,8.80
2023-03-20T21:09:27.386Z,8.80
2023-03-20T21:11:54.467Z,8.80
2023-03-20T21:14:21.933Z,8.80
2023-03-20T21:16:49.015Z,8.80
2023-03-20T21:19:16.173Z,8.80
2023-03-20T21:21:43.332Z,8.70
2023-03-20T21:24:30.834Z,8.70
2023-03-20T21:26:59.395Z,8.70
2023-03-20T21:29:26.679Z,8.70
2023-03-20T21:31:53.918Z,8.70
2023-03-20T21:34:21.302Z,8.60
2023-03-20T21:36:49.140Z,8.60
2023-03-20T21:39:16.837Z,8.50
2023-03-20T21:41:44.303Z,8.50
2023-03-20T21:44:17.191Z,8.50
2023-03-20T21:47:38.099Z,8.40
2023-03-20T21:56:02.316Z,8.30
2023-03-20T22:01:29.079Z,8.30
2023-03-20T22:04:06.393Z,8.20
2023-03-20T22:26:56.693Z,8.00
2023-03-20T22:35:05.036Z,7.90
2023-03-20T22:37:46.529Z,7.90
2023-03-20T22:40:59.367Z,7.90
2023-03-20T22:45:37.966Z,7.90
2023-03-20T22:48:11.668Z,7.90
2023-03-20T22:50:40.015Z,7.90
2023-03-20T22:53:07.099Z,7.90
2023-03-20T22:55:35.133Z,7.90
2023-03-20T22:58:07.957Z,7.90
2023-03-20T23:00:35.757Z,7.90
2023-03-20T23:03:17.547Z,7.90
2023-03-20T23:05:49.726Z,7.90
2023-03-20T23:08:16.982Z,7.90
2023-03-20T23:10:44.561Z,7.90
2023-03-20T23:13:12.069Z,7.90
2023-03-20T23:15:39.137Z,7.90
2023-03-20T23:18:06.285Z,7.80
2023-03-20T23:20:34.489Z,7.90
2023-03-20T23:23:01.574Z,7.90
2023-03-20T23:25:38.892Z,7.90
2023-03-20T23:28:10.200Z,7.90
2023-03-20T23:30:45.395Z,7.90
2023-03-20T23:33:15.595Z,7.90
2023-03-20T23:35:42.783Z,7.80
2023-03-20T23:38:09.933Z,7.90
2023-03-20T23:40:37.695Z,7.90
2023-03-20T23:43:05.012Z,7.80
2023-03-20T23:45:32.146Z,7.90
2023-03-20T23:47:59.312Z,7.80
2023-03-20T23:50:32.196Z,7.80
2023-03-20T23:53:17.651Z,7.80
2023-03-20T23:55:49.164Z,7.90
2023-03-20T23:58:17.266Z,7.90
